Time;durP1;ratioP1;P1;durP2;ratioP2;P2;SDS_P1;SDS_P2;PMS_P1;PMS_P2;Temp;Humidity;BMP_temperature;BMP_pressure;BME280_temperature;BME280_humidity;BME280_pressure;Samples;Min_cycle;Max_cycle;Signal;HPM_P1;HPM_P2
2023/01/23 00:00:56;;;;;;;20.52;10.30;;;;;;;9.19;100.00;101295.16;4983700;28;20034;-74
2023/01/23 00:03:21;;;;;;;17.85;9.05;;;;;;;9.10;100.00;101320.44;4992888;28;20034;-74
2023/01/23 00:05:58;;;;;;;22.83;11.65;;;;;;;8.47;100.00;101201.88;4983970;28;20030;-75
2023/01/23 00:08:23;;;;;;;21.42;10.00;;;;;;;8.96;100.00;101280.13;4997148;28;20108;-75
2023/01/23 00:10:49;;;;;;;15.77;8.48;;;;;;;9.12;100.00;101321.41;4997386;28;20053;-75
2023/01/23 00:13:16;;;;;;;18.55;10.18;;;;;;;9.12;100.00;101323.09;4997004;28;20065;-75
2023/01/23 00:15:42;;;;;;;21.10;10.43;;;;;;;9.14;100.00;101324.94;4997097;28;20038;-75
2023/01/23 00:18:07;;;;;;;16.42;9.38;;;;;;;9.15;100.00;101344.75;4979437;28;20081;-74
2023/01/23 00:20:35;;;;;;;21.17;10.63;;;;;;;9.21;100.00;101347.69;4996573;28;20120;-74
2023/01/23 00:23:01;;;;;;;20.48;10.77;;;;;;;9.17;100.00;101335.44;4995301;28;20030;-74
2023/01/23 00:25:26;;;;;;;30.40;12.10;;;;;;;9.13;100.00;101343.78;4996994;28;20034;-75
2023/01/23 00:27:53;;;;;;;28.55;13.20;;;;;;;9.18;100.00;101334.66;4996852;28;20032;-75
2023/01/23 00:30:19;;;;;;;23.70;11.98;;;;;;;9.15;100.00;101328.44;4996950;28;20057;-75
2023/01/23 00:32:45;;;;;;;21.10;12.45;;;;;;;9.20;100.00;101333.03;4992780;28;20038;-73
2023/01/23 00:35:10;;;;;;;22.30;11.13;;;;;;;9.24;100.00;101339.25;4976890;28;20030;-73
2023/01/23 00:37:35;;;;;;;27.75;10.60;;;;;;;9.25;100.00;101337.56;4987393;28;20049;-73
2023/01/23 00:40:02;;;;;;;23.73;11.15;;;;;;;9.27;100.00;101341.09;4984199;28;20408;-75
2023/01/23 00:42:28;;;;;;;17.40;10.13;;;;;;;9.26;100.00;101340.22;4996501;28;20503;-72
2023/01/23 00:44:53;;;;;;;35.50;12.48;;;;;;;8.84;100.00;101267.44;4996608;28;20057;-73
2023/01/23 00:47:19;;;;;;;21.02;10.60;;;;;;;9.10;100.00;101311.78;4996154;28;20026;-73
2023/01/23 00:49:44;;;;;;;26.27;11.13;;;;;;;9.25;100.00;101342.72;4996168;28;20034;-72
2023/01/23 00:52:10;;;;;;;23.13;12.63;;;;;;;9.19;100.00;101349.28;4996580;28;20492;-72
2023/01/23 00:54:37;;;;;;;26.55;12.75;;;;;;;9.12;100.00;101339.44;4983190;28;20080;-71
2023/01/23 00:57:02;;;;;;;22.25;11.70;;;;;;;8.66;100.00;101270.75;4977283;28;20034;-71
2023/01/23 00:59:28;;;;;;;19.75;11.38;;;;;;;9.12;100.00;101366.88;4977129;28;20544;-70
2023/01/23 01:01:53;;;;;;;24.67;11.20;;;;;;;9.09;100.00;101351.25;4959125;28;20060;-71
2023/01/23 01:04:19;;;;;;;24.25;12.00;;;;;;;9.07;100.00;101349.47;4978268;28;20039;-72
2023/01/23 01:06:44;;;;;;;19.90;10.38;;;;;;;8.93;100.00;101321.16;4983806;28;20035;-73
2023/01/23 01:09:10;;;;;;;19.73;11.20;;;;;;;9.11;100.00;101349.63;4996455;28;20089;-76
2023/01/23 01:11:36;;;;;;;22.40;11.88;;;;;;;8.97;100.00;101335.97;4978739;28;20026;-75
2023/01/23 01:14:01;;;;;;;22.77;12.45;;;;;;;9.03;100.00;101342.38;4991466;28;20097;-75
2023/01/23 01:16:27;;;;;;;23.85;12.23;;;;;;;9.07;100.00;101358.88;4991808;28;20033;-76
2023/01/23 01:18:52;;;;;;;23.73;10.52;;;;;;;9.05;100.00;101350.19;4974965;28;20558;-76
2023/01/23 01:21:18;;;;;;;24.20;11.52;;;;;;;9.06;100.00;101367.44;4993257;28;20023;-77
2023/01/23 01:23:43;;;;;;;23.52;11.95;;;;;;;8.95;100.00;101335.00;4989328;28;20030;-75
2023/01/23 01:26:10;;;;;;;28.75;12.35;;;;;;;9.03;100.00;101363.00;4993357;28;20031;-75
2023/01/23 01:28:38;;;;;;;25.95;12.68;;;;;;;9.05;100.00;101360.50;4992808;28;20133;-74
2023/01/23 01:31:10;;;;;;;21.58;12.40;;;;;;;9.02;100.00;101344.84;4993570;28;20409;-74
2023/01/23 01:33:37;;;;;;;19.17;11.10;;;;;;;9.01;100.00;101333.69;4993502;28;20038;-74
2023/01/23 01:36:09;;;;;;;29.15;13.38;;;;;;;9.09;100.00;101351.25;4993663;28;20042;-74
2023/01/23 01:38:34;;;;;;;25.70;11.88;;;;;;;9.02;100.00;101340.59;4993640;28;20034;-74
2023/01/23 01:41:00;;;;;;;23.98;11.43;;;;;;;9.15;100.00;101360.22;4993866;28;20034;-73
2023/01/23 01:43:26;;;;;;;29.65;11.63;;;;;;;8.98;100.00;101327.47;4993437;28;20030;-76
2023/01/23 01:45:58;;;;;;;25.67;12.55;;;;;;;9.18;100.00;101362.06;4993250;28;20427;-75
2023/01/23 01:48:28;;;;;;;23.40;11.18;;;;;;;8.68;100.00;101276.84;4993675;28;20030;-74
2023/01/23 01:50:54;;;;;;;31.60;12.80;;;;;;;9.18;100.00;101364.66;4975968;28;20034;-75
2023/01/23 01:53:22;;;;;;;26.67;13.70;;;;;;;8.62;100.00;101273.03;4993481;28;20408;-74
2023/01/23 01:55:48;;;;;;;29.90;12.45;;;;;;;9.18;100.00;101369.81;4993197;28;20034;-74
2023/01/23 01:58:15;;;;;;;22.08;11.52;;;;;;;9.04;100.00;101348.41;4993214;28;20033;-74
2023/01/23 02:00:41;;;;;;;22.50;11.07;;;;;;;8.86;100.00;101313.09;4993129;28;20462;-75
2023/01/23 02:03:06;;;;;;;22.67;10.35;;;;;;;9.12;100.00;101354.91;4993268;28;20038;-74
2023/01/23 02:05:36;;;;;;;24.73;10.82;;;;;;;8.74;100.00;101290.06;4993042;28;20030;-74
2023/01/23 02:08:15;;;;;;;39.35;13.85;;;;;;;8.75;100.00;101293.56;4993126;28;20085;-74
2023/01/23 02:10:42;;;;;;;39.22;14.15;;;;;;;9.22;100.00;101382.06;4992956;28;20497;-74
2023/01/23 02:13:17;;;;;;;37.20;12.73;;;;;;;9.25;100.00;101384.81;4992615;28;20030;-74
2023/01/23 02:15:42;;;;;;;23.75;10.85;;;;;;;9.22;100.00;101400.09;4993055;28;20022;-74
2023/01/23 02:18:08;;;;;;;35.50;12.48;;;;;;;9.21;100.00;101394.06;4992897;28;20031;-74
2023/01/23 02:20:33;;;;;;;37.47;12.25;;;;;;;9.18;100.00;101399.06;4992833;28;20030;-75
2023/01/23 02:23:25;;;;;;;35.28;11.80;;;;;;;8.71;100.00;101319.91;4992813;28;20147;-74
2023/01/23 02:25:59;;;;;;;35.95;11.73;;;;;;;9.17;100.00;101401.50;4992651;28;20026;-75
2023/01/23 02:28:41;;;;;;;27.58;12.02;;;;;;;9.01;100.00;101382.63;4992767;28;20135;-76
2023/01/23 02:31:07;;;;;;;35.88;13.73;;;;;;;8.86;100.00;101377.47;4992653;28;20113;-75
2023/01/23 02:33:32;;;;;;;45.70;14.02;;;;;;;9.03;100.00;101408.44;4992490;28;20038;-75
2023/01/23 02:35:58;;;;;;;56.47;16.45;;;;;;;8.54;100.00;101324.09;4974887;28;20084;-75
2023/01/23 02:38:28;;;;;;;65.28;18.00;;;;;;;8.96;100.00;101408.88;4992686;28;20065;-76
2023/01/23 02:40:56;;;;;;;48.58;15.30;;;;;;;8.13;100.00;101253.91;4975273;28;20061;-75
2023/01/23 02:43:25;;;;;;;64.72;18.77;;;;;;;9.01;100.00;101412.63;4992418;28;20045;-75
2023/01/23 02:45:52;;;;;;;61.20;18.88;;;;;;;8.98;100.00;101408.16;4992425;28;20080;-75
2023/01/23 02:48:18;;;;;;;55.10;17.05;;;;;;;8.91;100.00;101393.19;4992086;28;20408;-75
2023/01/23 02:50:45;;;;;;;43.17;15.18;;;;;;;8.99;100.00;101403.94;4992202;28;20037;-76
2023/01/23 02:53:11;;;;;;;55.05;15.40;;;;;;;9.01;100.00;101407.47;4992034;28;20123;-75
2023/01/23 02:55:41;;;;;;;36.05;14.55;;;;;;;8.99;100.00;101401.34;4992242;28;20026;-75
2023/01/23 03:00:50;;;;;;;27.90;12.02;;;;;;;8.35;100.00;101320.38;4991197;28;19972;-76
2023/01/23 03:03:17;;;;;;;30.98;12.45;;;;;;;8.83;100.00;101409.88;4992213;28;20026;-75
2023/01/23 03:05:43;;;;;;;31.23;13.68;;;;;;;8.82;100.00;101413.22;4974602;28;20026;-75
2023/01/23 03:08:08;;;;;;;30.65;12.07;;;;;;;8.64;100.00;101392.44;4991913;28;20105;-75
2023/01/23 03:10:34;;;;;;;23.88;11.23;;;;;;;8.77;100.00;101419.78;4990718;28;20484;-75
2023/01/23 03:13:05;;;;;;;26.42;12.27;;;;;;;8.76;100.00;101413.78;4991788;28;20031;-75
2023/01/23 03:15:32;;;;;;;33.38;13.35;;;;;;;8.79;100.00;101416.50;4991574;28;20030;-76
2023/01/23 03:17:58;;;;;;;24.90;11.60;;;;;;;8.81;100.00;101420.06;4991769;28;20038;-75
2023/01/23 03:20:23;;;;;;;22.65;10.52;;;;;;;8.78;100.00;101422.44;4991717;28;20085;-75
2023/01/23 03:22:49;;;;;;;31.83;12.55;;;;;;;8.39;100.00;101363.50;4991750;28;20034;-75
2023/01/23 03:25:15;;;;;;;30.40;12.15;;;;;;;8.77;100.00;101414.66;4991717;28;20061;-75
2023/01/23 03:27:41;;;;;;;23.23;11.02;;;;;;;8.73;100.00;101418.72;4974182;28;20480;-75
2023/01/23 03:30:14;;;;;;;22.42;10.75;;;;;;;8.67;100.00;101420.94;4991579;28;20050;-77
2023/01/23 03:32:41;;;;;;;19.38;10.38;;;;;;;8.13;100.00;101322.47;4991537;28;20112;-76
2023/01/23 03:35:19;;;;;;;22.77;11.25;;;;;;;8.61;100.00;101411.16;4991557;28;20040;-77
2023/01/23 03:37:48;;;;;;;22.95;11.10;;;;;;;8.70;100.00;101414.28;4956313;28;20043;-76
2023/01/23 03:43:08;;;;;;;23.38;10.40;;;;;;;8.63;100.00;101416.41;4991681;28;20475;-76
2023/01/23 03:45:34;;;;;;;20.42;10.82;;;;;;;8.38;100.00;101378.84;4991631;28;20038;-77
2023/01/23 03:47:59;;;;;;;16.85;8.57;;;;;;;8.49;100.00;101403.59;4991400;28;20026;-76
2023/01/23 03:50:25;;;;;;;21.80;11.95;;;;;;;8.60;100.00;101422.25;4991231;28;20073;-76
2023/01/23 03:52:50;;;;;;;22.77;9.80;;;;;;;8.60;100.00;101423.94;4991376;28;20096;-76
2023/01/23 03:55:16;;;;;;;21.33;9.95;;;;;;;8.04;100.00;101336.53;4991070;28;20102;-76
2023/01/23 03:57:41;;;;;;;14.90;8.68;;;;;;;8.57;100.00;101429.78;4990938;28;20026;-76
2023/01/23 04:00:27;;;;;;;18.52;9.10;;;;;;;8.31;100.00;101405.91;4969396;28;20612;-76
2023/01/23 04:02:52;;;;;;;22.00;9.82;;;;;;;7.57;100.00;101278.81;4969527;28;20047;-76
2023/01/23 04:05:18;;;;;;;18.00;9.52;;;;;;;8.38;100.00;101420.03;4969397;28;20491;-75
2023/01/23 04:07:43;;;;;;;18.80;9.25;;;;;;;8.49;100.00;101442.19;4969324;28;20031;-75
2023/01/23 04:10:09;;;;;;;21.30;10.20;;;;;;;8.47;100.00;101454.06;4969088;28;20145;-75
2023/01/23 04:12:34;;;;;;;21.08;9.50;;;;;;;8.32;100.00;101420.53;4969362;28;20035;-74
2023/01/23 04:14:59;;;;;;;17.65;8.52;;;;;;;8.31;100.00;101436.78;4969431;28;20046;-75
2023/01/23 04:17:25;;;;;;;15.95;8.90;;;;;;;8.37;100.00;101454.25;4968652;28;20051;-75
2023/01/23 04:19:50;;;;;;;14.98;8.95;;;;;;;8.45;100.00;101462.44;4953109;28;20063;-75
2023/01/23 04:22:16;;;;;;;13.93;9.25;;;;;;;8.30;100.00;101441.81;4968130;28;20531;-78
2023/01/23 04:24:41;;;;;;;19.13;9.10;;;;;;;8.31;100.00;101454.78;4968944;28;20030;-78
2023/01/23 04:27:06;;;;;;;21.65;10.75;;;;;;;8.42;100.00;101469.22;4969076;28;20532;-78
2023/01/23 04:29:32;;;;;;;16.70;9.10;;;;;;;7.90;100.00;101373.34;4965265;28;20051;-76
2023/01/23 04:31:57;;;;;;;20.30;9.80;;;;;;;8.37;100.00;101474.84;4969977;28;20043;-74
2023/01/23 04:34:23;;;;;;;19.10;9.98;;;;;;;8.38;100.00;101471.50;4971456;28;20477;-74
2023/01/23 04:36:48;;;;;;;21.67;10.32;;;;;;;8.34;100.00;101460.13;4971347;28;20515;-74
2023/01/23 04:39:14;;;;;;;15.93;8.68;;;;;;;7.98;100.00;101402.13;4971693;28;20548;-75
2023/01/23 04:41:39;;;;;;;16.23;9.68;;;;;;;8.33;100.00;101467.75;4983414;28;20088;-74
2023/01/23 04:44:19;;;;;;;18.00;9.60;;;;;;;8.29;100.00;101461.50;4989959;28;20034;-74
2023/01/23 04:46:51;;;;;;;19.38;9.98;;;;;;;8.34;100.00;101469.53;4987891;28;20023;-74
2023/01/23 04:49:18;;;;;;;19.73;8.60;;;;;;;8.24;100.00;101468.94;4988835;28;20045;-74
2023/01/23 04:51:44;;;;;;;16.23;9.27;;;;;;;8.24;100.00;101471.50;4994414;28;20018;-75
2023/01/23 04:54:10;;;;;;;17.70;9.30;;;;;;;8.13;100.00;101449.38;4994213;28;20033;-74
2023/01/23 04:56:36;;;;;;;19.73;10.35;;;;;;;8.05;100.00;101442.84;4993893;28;20496;-74
2023/01/23 04:59:01;;;;;;;17.42;10.20;;;;;;;8.34;100.00;101488.41;4994282;28;20106;-74
2023/01/23 05:01:27;;;;;;;22.02;11.23;;;;;;;8.35;100.00;101497.91;4994018;28;20026;-74
2023/01/23 05:03:52;;;;;;;21.98;11.45;;;;;;;8.32;100.00;101502.84;4992498;28;20027;-74
2023/01/23 05:06:18;;;;;;;21.02;11.52;;;;;;;8.34;100.00;101502.97;4993770;28;20042;-74
2023/01/23 05:08:44;;;;;;;23.75;11.70;;;;;;;8.37;100.00;101503.16;4993848;28;20026;-75
2023/01/23 05:11:10;;;;;;;18.92;10.82;;;;;;;8.31;100.00;101495.06;4959286;28;20035;-75
2023/01/23 05:13:36;;;;;;;21.55;12.55;;;;;;;8.37;100.00;101504.06;4993133;28;20018;-75
2023/01/23 05:16:01;;;;;;;20.60;11.00;;;;;;;8.39;100.00;101497.31;4993924;28;20107;-75
2023/01/23 05:18:26;;;;;;;24.35;10.93;;;;;;;8.41;100.00;101516.31;4991370;28;20463;-75
2023/01/23 05:20:52;;;;;;;23.77;11.20;;;;;;;8.35;100.00;101494.44;4993406;28;20108;-75
2023/01/23 05:23:17;;;;;;;23.23;12.10;;;;;;;8.38;100.00;101502.38;4993683;28;20080;-74
2023/01/23 05:25:45;;;;;;;21.67;10.73;;;;;;;8.26;100.00;101493.09;4993937;28;20031;-74
2023/01/23 05:28:11;;;;;;;22.88;11.38;;;;;;;8.46;100.00;101520.84;4993343;28;20027;-75
2023/01/23 05:30:36;;;;;;;19.33;10.48;;;;;;;8.16;100.00;101474.41;4992943;28;20050;-75
2023/01/23 05:33:02;;;;;;;22.77;11.30;;;;;;;8.47;100.00;101525.25;4993032;28;20034;-75
2023/01/23 05:35:27;;;;;;;18.45;10.32;;;;;;;8.41;100.00;101518.88;4993491;28;20096;-75
2023/01/23 05:37:53;;;;;;;23.75;11.68;;;;;;;8.32;100.00;101531.16;4992685;28;20038;-75
2023/01/23 05:40:20;;;;;;;22.15;10.48;;;;;;;8.38;100.00;101538.38;4993912;28;20117;-75
2023/01/23 05:42:47;;;;;;;19.40;10.32;;;;;;;7.80;100.00;101446.47;4993988;28;20050;-75
2023/01/23 05:45:12;;;;;;;23.13;10.73;;;;;;;8.25;100.00;101527.31;4993811;28;20057;-75
2023/01/23 05:47:38;;;;;;;19.38;9.63;;;;;;;8.16;100.00;101519.03;4993672;28;20496;-75
2023/01/23 05:50:06;;;;;;;21.27;10.80;;;;;;;8.34;100.00;101541.56;4993907;28;20079;-75
2023/01/23 05:52:33;;;;;;;20.02;11.13;;;;;;;7.95;100.00;101472.25;4985748;28;20436;-75
2023/01/23 05:54:58;;;;;;;17.73;9.90;;;;;;;8.15;100.00;101514.69;4980618;28;20416;-75
2023/01/23 05:57:24;;;;;;;31.27;10.75;;;;;;;8.37;100.00;101546.91;4998315;28;20037;-76
2023/01/23 05:59:49;;;;;;;15.73;9.38;;;;;;;8.35;100.00;101549.38;4998193;28;20093;-76
2023/01/23 06:02:15;;;;;;;19.52;9.20;;;;;;;7.70;100.00;101442.41;4991888;28;20059;-74
2023/01/23 06:04:40;;;;;;;18.48;10.07;;;;;;;8.27;100.00;101555.72;4985921;28;20042;-76
2023/01/23 06:07:12;;;;;;;17.92;10.32;;;;;;;8.31;100.00;101559.38;4972899;28;20027;-76
2023/01/23 06:09:37;;;;;;;18.23;9.20;;;;;;;8.30;100.00;101567.88;4973012;28;20117;-76
2023/01/23 06:12:02;;;;;;;18.73;10.55;;;;;;;8.30;100.00;101567.88;4973398;28;20185;-76
2023/01/23 06:14:50;;;;;;;16.73;9.15;;;;;;;8.25;100.00;101558.19;4973761;28;20030;-76
2023/01/23 06:17:17;;;;;;;18.20;9.98;;;;;;;8.28;100.00;101560.06;4976797;28;20030;-77
2023/01/23 06:20:07;;;;;;;18.88;9.95;;;;;;;8.24;100.00;101558.97;4915374;29;20032;-77
2023/01/23 06:22:41;;;;;;;19.42;9.73;;;;;;;8.34;100.00;101575.91;4903651;29;20098;-73
2023/01/23 06:25:15;;;;;;;17.83;10.05;;;;;;;8.39;100.00;101576.19;4933631;29;20036;-73
2023/01/23 06:27:46;;;;;;;19.20;10.10;;;;;;;8.42;100.00;101579.88;4935475;29;20500;-73
2023/01/23 06:30:40;;;;;;;22.50;10.38;;;;;;;8.48;100.00;101578.50;4922731;29;20420;-75
2023/01/23 06:33:14;;;;;;;24.30;11.40;;;;;;;8.43;100.00;101565.28;4861943;29;20057;-72
2023/01/23 06:35:41;;;;;;;18.38;9.52;;;;;;;8.49;100.00;101591.47;4833293;29;20088;-76
2023/01/23 06:38:07;;;;;;;19.38;9.63;;;;;;;8.42;100.00;101581.53;4852993;29;20083;-73
2023/01/23 06:40:40;;;;;;;17.15;10.25;;;;;;;8.52;100.00;101599.38;4824631;29;20049;-74
2023/01/23 06:43:16;;;;;;;19.85;9.65;;;;;;;8.55;100.00;101601.25;4819823;29;20046;-74
2023/01/23 06:45:53;;;;;;;20.85;10.38;;;;;;;8.56;100.00;101600.44;4823331;29;20433;-74
2023/01/23 06:48:46;;;;;;;18.88;9.50;;;;;;;8.43;100.00;101586.75;4823298;29;20030;-74
2023/01/23 06:51:21;;;;;;;17.17;9.80;;;;;;;8.53;100.00;101610.56;4786726;30;20047;-74
2023/01/23 06:53:56;;;;;;;17.67;9.15;;;;;;;8.47;100.00;101605.91;4786055;29;20082;-74
2023/01/23 06:56:52;;;;;;;15.98;8.98;;;;;;;8.52;100.00;101616.50;4783154;30;20438;-75
2023/01/23 06:59:20;;;;;;;15.60;9.15;;;;;;;8.49;100.00;101613.75;4727705;30;20044;-75
2023/01/23 07:01:48;;;;;;;16.58;8.88;;;;;;;8.49;100.00;101616.31;4748851;30;20048;-76
2023/01/23 07:04:18;;;;;;;18.35;9.45;;;;;;;8.46;100.00;101619.59;4750596;30;20051;-76
2023/01/23 07:06:45;;;;;;;16.05;9.20;;;;;;;8.54;100.00;101618.38;4746932;30;20186;-75
2023/01/23 07:09:15;;;;;;;13.55;8.57;;;;;;;8.50;100.00;101613.84;4736086;30;20052;-76
2023/01/23 07:11:43;;;;;;;16.80;9.32;;;;;;;8.56;100.00;101613.31;4750366;30;20093;-75
2023/01/23 07:14:12;;;;;;;23.58;11.48;;;;;;;8.49;100.00;101614.63;4753317;30;20602;-74
2023/01/23 07:16:39;;;;;;;23.77;10.05;;;;;;;8.60;100.00;101629.84;4766767;30;20050;-74
2023/01/23 07:19:06;;;;;;;18.77;10.98;;;;;;;8.39;100.00;101610.53;4763820;30;20054;-78
2023/01/23 07:21:32;;;;;;;19.02;11.30;;;;;;;8.48;100.00;101612.84;4764428;30;20051;-74
2023/01/23 07:23:59;;;;;;;17.17;10.07;;;;;;;8.69;100.00;101633.91;4763659;30;20419;-76
2023/01/23 07:26:26;;;;;;;16.08;9.57;;;;;;;8.57;100.00;101604.81;4763553;30;20118;-73
2023/01/23 07:28:52;;;;;;;19.02;10.82;;;;;;;8.74;100.00;101642.78;4777772;29;20063;-74
2023/01/23 07:31:19;;;;;;;17.10;9.02;;;;;;;8.70;100.00;101634.81;4781791;29;20121;-74
2023/01/23 07:33:49;;;;;;;19.77;10.23;;;;;;;8.69;100.00;101651.03;4783259;29;20045;-73
2023/01/23 07:36:17;;;;;;;21.13;10.48;;;;;;;8.69;100.00;101651.91;4771411;29;20069;-72
2023/01/23 07:38:44;;;;;;;15.45;8.68;;;;;;;8.70;100.00;101650.25;4822859;29;20140;-73
2023/01/23 07:41:12;;;;;;;18.33;9.48;;;;;;;8.68;100.00;101641.53;4874424;29;20416;-73
2023/01/23 07:43:39;;;;;;;20.50;10.80;;;;;;;8.66;100.00;101646.59;4919021;29;20046;-73
2023/01/23 07:46:08;;;;;;;16.65;9.95;;;;;;;8.70;100.00;101651.13;4931161;29;20031;-73
2023/01/23 07:48:36;;;;;;;18.25;9.20;;;;;;;8.75;100.00;101654.00;4927167;29;20035;-75
2023/01/23 07:51:10;;;;;;;16.98;10.35;;;;;;;8.74;100.00;101637.66;4929285;29;20233;-75
2023/01/23 07:53:37;;;;;;;19.83;10.02;;;;;;;8.66;100.00;101648.25;4914764;29;20136;-76
2023/01/23 07:56:05;;;;;;;18.33;9.38;;;;;;;8.75;100.00;101654.00;4924384;29;20577;-74
2023/01/23 07:58:31;;;;;;;14.82;7.35;;;;;;;8.57;100.00;101644.31;4927382;29;20549;-73
2023/01/23 08:00:57;;;;;;;19.08;9.85;;;;;;;8.55;100.00;101629.56;4927540;29;20032;-72
2023/01/23 08:03:22;;;;;;;17.75;9.63;;;;;;;8.61;100.00;101660.84;4924042;29;20776;-80
2023/01/23 08:05:49;;;;;;;20.30;9.23;;;;;;;8.65;100.00;101661.91;4924873;29;20042;-75
2023/01/23 08:08:14;;;;;;;15.05;9.68;;;;;;;8.38;100.00;101607.88;4922209;29;20490;-73
2023/01/23 08:10:41;;;;;;;22.58;9.25;;;;;;;8.48;100.00;101628.28;4922651;29;20038;-75
2023/01/23 08:13:07;;;;;;;14.85;7.80;;;;;;;8.51;100.00;101636.22;4925442;29;20517;-75
2023/01/23 08:15:32;;;;;;;16.10;8.57;;;;;;;8.60;100.00;101663.31;4949952;28;20034;-75
2023/01/23 08:17:58;;;;;;;17.15;10.00;;;;;;;8.74;100.00;101667.66;4971423;28;20041;-76
2023/01/23 08:20:23;;;;;;;19.98;9.52;;;;;;;8.08;100.00;101559.66;4971321;28;20022;-75
2023/01/23 08:22:48;;;;;;;17.70;8.63;;;;;;;8.64;100.00;101662.72;4971313;28;20038;-74
2023/01/23 08:25:14;;;;;;;16.55;8.60;;;;;;;8.32;100.00;101610.91;4973926;28;20496;-76
2023/01/23 08:27:39;;;;;;;14.93;8.43;;;;;;;8.86;100.00;101668.44;4973325;28;20156;-76
2023/01/23 08:30:05;;;;;;;19.77;8.95;;;;;;;8.65;100.00;101644.81;4989560;28;20050;-76
2023/01/23 08:32:33;;;;;;;13.07;7.18;;;;;;;8.63;100.00;101654.09;4994657;28;20042;-76
2023/01/23 08:34:58;;;;;;;15.60;7.45;;;;;;;8.58;100.00;101663.22;4994543;28;20022;-76
2023/01/23 08:37:24;;;;;;;16.70;8.45;;;;;;;8.73;100.00;101684.81;4994873;28;20025;-75
2023/01/23 08:39:49;;;;;;;14.70;8.80;;;;;;;8.71;100.00;101678.66;4977566;28;20027;-75
2023/01/23 08:42:15;;;;;;;18.80;10.52;;;;;;;8.74;100.00;101677.97;4994772;28;20033;-75
2023/01/23 08:44:40;;;;;;;16.88;8.43;;;;;;;8.60;100.00;101650.44;4994741;28;20039;-76
2023/01/23 08:47:05;;;;;;;16.77;8.52;;;;;;;8.46;100.00;101642.75;4994937;28;20030;-77
2023/01/23 08:49:31;;;;;;;13.23;7.57;;;;;;;8.27;100.00;101609.72;4994626;28;20459;-77
2023/01/23 08:51:58;;;;;;;17.73;8.70;;;;;;;8.61;100.00;101678.88;4994724;28;20057;-77
2023/01/23 08:54:24;;;;;;;20.13;9.45;;;;;;;8.63;100.00;101661.81;4994709;28;20018;-77
2023/01/23 08:56:49;;;;;;;21.45;8.73;;;;;;;8.76;100.00;101678.06;4994804;28;20512;-77
2023/01/23 08:59:14;;;;;;;23.98;10.13;;;;;;;8.77;100.00;101682.41;4994482;28;20549;-77
2023/01/23 09:01:40;;;;;;;27.05;9.77;;;;;;;8.80;100.00;101672.31;4994573;28;20068;-76
2023/01/23 09:04:05;;;;;;;29.55;10.15;;;;;;;8.82;100.00;101686.16;4994547;28;20121;-77
2023/01/23 09:06:30;;;;;;;51.08;14.35;;;;;;;8.70;100.00;101666.59;4994302;28;20026;-75
2023/01/23 09:08:56;;;;;;;28.30;11.20;;;;;;;8.83;100.00;101677.66;4994515;28;20399;-76
2023/01/23 09:11:22;;;;;;;39.22;10.38;;;;;;;8.74;100.00;101683.13;4994439;28;20029;-74
2023/01/23 09:13:48;;;;;;;21.60;9.43;;;;;;;8.75;100.00;101684.91;4994274;28;20483;-75
2023/01/23 09:16:14;;;;;;;33.25;9.43;;;;;;;8.74;100.00;101672.81;4943808;28;20034;-75
2023/01/23 09:18:39;;;;;;;36.20;10.73;;;;;;;8.72;100.00;101690.75;4994352;28;20054;-75
2023/01/23 09:21:07;;;;;;;21.95;8.90;;;;;;;8.75;100.00;101679.75;4994175;28;20026;-75
2023/01/23 09:23:32;;;;;;;33.13;11.48;;;;;;;8.76;100.00;101672.91;4994491;28;20022;-76
2023/01/23 09:26:02;;;;;;;28.85;10.23;;;;;;;8.30;100.00;101585.88;4994036;28;20100;-75
2023/01/23 09:28:28;;;;;;;26.95;9.75;;;;;;;8.82;100.00;101675.88;4993927;28;20038;-74
2023/01/23 09:30:53;;;;;;;18.92;9.63;;;;;;;8.84;100.00;101672.59;4994570;28;20038;-74
2023/01/23 09:33:23;;;;;;;24.25;7.97;;;;;;;8.90;100.00;101670.41;4994080;28;20092;-78
2023/01/23 09:35:52;;;;;;;25.98;9.73;;;;;;;8.86;100.00;101670.13;4992984;28;20038;-78
2023/01/23 09:38:17;;;;;;;26.00;10.73;;;;;;;8.90;100.00;101669.53;4993735;28;20022;-77
2023/01/23 09:41:09;;;;;;;36.22;11.98;;;;;;;8.41;100.00;101585.78;4993872;28;20045;-77
2023/01/23 09:43:43;;;;;;;26.95;9.50;;;;;;;8.63;100.00;101637.78;4914523;29;20059;-77
2023/01/23 09:46:09;;;;;;;28.27;10.75;;;;;;;8.84;100.00;101674.31;4914687;29;20099;-77
2023/01/23 09:48:57;;;;;;;30.80;9.20;;;;;;;8.85;100.00;101671.81;4914511;29;20495;-77
2023/01/23 09:51:42;;;;;;;29.75;10.93;;;;;;;8.53;100.00;101629.44;4914376;29;20028;-76
2023/01/23 09:54:21;;;;;;;21.98;9.00;;;;;;;8.77;100.00;101670.41;4914465;29;20048;-77
2023/01/23 09:56:49;;;;;;;29.77;9.75;;;;;;;8.74;100.00;101670.25;4914501;29;20043;-77
2023/01/23 09:59:31;;;;;;;22.85;9.25;;;;;;;8.73;100.00;101676.19;4914287;29;20050;-76
2023/01/23 10:01:56;;;;;;;25.15;9.88;;;;;;;8.39;100.00;101609.66;4914362;29;20055;-77
2023/01/23 10:04:22;;;;;;;15.70;9.13;;;;;;;8.63;100.00;101642.94;4914419;29;20036;-77
2023/01/23 10:07:14;;;;;;;19.17;9.18;;;;;;;8.77;100.00;101674.69;4914100;29;20048;-77
2023/01/23 10:09:45;;;;;;;14.70;7.57;;;;;;;8.34;100.00;101596.47;4920048;29;20126;-77
2023/01/23 10:12:20;;;;;;;17.58;7.93;;;;;;;8.73;100.00;101671.03;4932985;29;20036;-77
2023/01/23 10:15:07;;;;;;;16.35;7.75;;;;;;;8.78;100.00;101663.59;4933150;29;20179;-76
2023/01/23 10:17:39;;;;;;;19.08;8.55;;;;;;;8.68;100.00;101651.81;4933035;29;20549;-77
2023/01/23 10:20:29;;;;;;;15.68;7.70;;;;;;;8.71;100.00;101670.94;4962946;28;20042;-77
2023/01/23 10:23:12;;;;;;;15.77;7.55;;;;;;;8.69;100.00;101674.22;5012794;28;20117;-77
2023/01/23 10:25:39;;;;;;;15.00;7.93;;;;;;;8.16;100.00;101562.75;5012710;28;20116;-77
2023/01/23 10:28:34;;;;;;;16.70;8.85;;;;;;;8.40;100.00;101612.31;5012661;28;20109;-77
2023/01/23 10:31:04;;;;;;;38.83;10.35;;;;;;;8.66;100.00;101663.69;5001098;28;20066;-77
2023/01/23 10:33:44;;;;;;;25.27;10.35;;;;;;;8.41;100.00;101634.69;4992700;28;20058;-76
2023/01/23 10:36:16;;;;;;;29.35;9.68;;;;;;;8.57;100.00;101641.75;4998646;28;20033;-76
2023/01/23 10:38:55;;;;;;;20.10;8.90;;;;;;;8.57;100.00;101656.28;5012408;28;20451;-77
2023/01/23 10:41:20;;;;;;;22.40;8.20;;;;;;;8.49;100.00;101648.06;5012239;28;20032;-76
2023/01/23 10:43:51;;;;;;;32.20;8.95;;;;;;;8.12;100.00;101583.91;5006938;28;20256;-76
2023/01/23 10:46:38;;;;;;;20.30;8.27;;;;;;;7.98;100.00;101569.28;5012217;28;20392;-76
2023/01/23 10:49:05;;;;;;;20.65;8.15;;;;;;;8.42;100.00;101646.78;5012024;28;20064;-76
2023/01/23 10:51:36;;;;;;;25.45;8.80;;;;;;;8.46;100.00;101655.63;5012140;28;20034;-77
2023/01/23 10:54:01;;;;;;;26.77;9.85;;;;;;;8.46;100.00;101662.38;5011899;28;20060;-76
2023/01/23 10:56:27;;;;;;;29.30;9.80;;;;;;;8.31;100.00;101639.13;5011937;28;20480;-76
2023/01/23 10:58:54;;;;;;;20.20;8.65;;;;;;;8.34;100.00;101632.50;5012036;28;20460;-76
2023/01/23 11:01:31;;;;;;;22.95;8.70;;;;;;;8.22;100.00;101629.13;5005817;28;20030;-76
2023/01/23 11:04:09;;;;;;;22.88;8.93;;;;;;;8.34;100.00;101647.94;4992328;28;20030;-76
2023/01/23 11:06:34;;;;;;;41.15;10.93;;;;;;;8.39;100.00;101649.13;4992188;28;20049;-76
2023/01/23 11:09:00;;;;;;;30.98;10.05;;;;;;;8.29;100.00;101632.97;4992413;28;20034;-76
2023/01/23 11:11:31;;;;;;;29.42;11.25;;;;;;;8.26;100.00;101650.03;4992331;28;20058;-76
2023/01/23 11:14:15;;;;;;;21.35;8.52;;;;;;;8.16;100.00;101629.66;4991996;28;20030;-76
2023/01/23 11:16:42;;;;;;;30.88;10.55;;;;;;;8.16;100.00;101634.78;4991944;28;20038;-76
2023/01/23 11:19:07;;;;;;;17.55;8.10;;;;;;;8.17;100.00;101662.25;4991107;28;20136;-76
2023/01/23 11:21:54;;;;;;;32.65;10.15;;;;;;;8.15;100.00;101658.72;4992107;28;20058;-76
2023/01/23 11:24:26;;;;;;;24.35;9.68;;;;;;;8.23;100.00;101659.22;4992029;28;20030;-76